createdAt,value
2017-08-28T00:00:01.800Z,9.35
2017-08-28T00:02:29.551Z,9.00
2017-08-28T00:04:57.341Z,9.15
2017-08-28T00:07:25.063Z,7.60
2017-08-28T00:09:52.811Z,9.30
2017-08-28T00:12:20.568Z,9.30
2017-08-28T00:14:48.297Z,8.52
2017-08-28T00:17:16.074Z,9.27
2017-08-28T00:19:43.802Z,11.52
2017-08-28T00:22:11.527Z,9.85
2017-08-28T00:24:39.287Z,9.45
2017-08-28T00:27:07.015Z,11.63
2017-08-28T00:29:34.792Z,8.90
2017-08-28T00:32:02.516Z,8.75
2017-08-28T00:34:30.239Z,11.50
2017-08-28T00:36:57.992Z,8.65
2017-08-28T00:39:25.728Z,8.75
2017-08-28T00:41:53.520Z,8.57
2017-08-28T00:44:21.249Z,9.32
2017-08-28T00:46:48.979Z,9.48
2017-08-28T00:49:16.743Z,9.20
2017-08-28T00:51:44.518Z,9.15
2017-08-28T00:54:12.344Z,12.35
2017-08-28T00:56:40.093Z,10.23
2017-08-28T00:59:07.821Z,9.02
2017-08-28T01:01:35.575Z,9.07
2017-08-28T01:04:03.301Z,8.48
2017-08-28T01:06:31.076Z,8.98
2017-08-28T01:08:58.798Z,9.50
2017-08-28T01:11:26.532Z,11.52
2017-08-28T01:13:54.328Z,9.25
2017-08-28T01:16:22.058Z,10.32
2017-08-28T01:18:49.849Z,11.07
2017-08-28T01:21:17.602Z,10.73
2017-08-28T01:23:45.323Z,9.95
2017-08-28T01:26:13.088Z,10.23
2017-08-28T01:28:41.695Z,12.05
2017-08-28T01:31:09.482Z,10.30
2017-08-28T01:33:37.221Z,11.02
2017-08-28T01:36:04.954Z,11.10
2017-08-28T01:38:32.711Z,9.38
2017-08-28T01:41:00.439Z,14.07
2017-08-28T01:43:28.229Z,13.70
2017-08-28T01:45:55.952Z,9.52
2017-08-28T01:48:23.751Z,11.98
2017-08-28T01:50:51.616Z,13.57
2017-08-28T01:53:19.364Z,13.05
2017-08-28T01:55:47.161Z,11.07
2017-08-28T01:58:14.892Z,10.60
2017-08-28T02:00:42.644Z,11.82
2017-08-28T02:03:10.404Z,12.52
2017-08-28T02:05:38.136Z,12.63
2017-08-28T02:08:06.240Z,14.30
2017-08-28T02:10:34.024Z,13.02
2017-08-28T02:13:01.759Z,11.43
2017-08-28T02:15:29.532Z,11.52
2017-08-28T02:17:57.268Z,13.25
2017-08-28T02:20:25.059Z,12.45
2017-08-28T02:22:52.787Z,11.93
2017-08-28T02:25:20.536Z,11.60
2017-08-28T02:27:48.314Z,13.77
2017-08-28T02:30:16.043Z,12.30
2017-08-28T02:32:43.850Z,13.05
2017-08-28T02:35:11.574Z,13.43
2017-08-28T02:37:39.304Z,11.68
2017-08-28T02:40:07.056Z,10.77
2017-08-28T02:42:34.784Z,10.38
2017-08-28T02:45:02.580Z,11.18
2017-08-28T02:47:30.314Z,12.63
2017-08-28T02:49:58.044Z,11.40
2017-08-28T02:52:25.810Z,11.50
2017-08-28T02:54:53.544Z,12.02
2017-08-28T02:57:21.340Z,11.10
2017-08-28T02:59:49.071Z,11.60
2017-08-28T03:02:16.799Z,13.85
2017-08-28T03:04:44.564Z,11.35
2017-08-28T03:07:12.290Z,14.68
2017-08-28T03:09:40.071Z,12.18
2017-08-28T03:12:07.815Z,13.23
2017-08-28T03:14:35.544Z,11.77
2017-08-28T03:17:03.304Z,13.20
2017-08-28T03:19:31.033Z,12.55
2017-08-28T03:21:58.818Z,11.30
2017-08-28T03:24:26.560Z,17.85
2017-08-28T03:26:54.293Z,12.77
2017-08-28T03:29:22.054Z,12.52
2017-08-28T03:31:49.787Z,11.70
2017-08-28T03:34:17.571Z,13.62
2017-08-28T03:36:45.301Z,14.40
2017-08-28T03:39:13.032Z,10.77
2017-08-28T03:41:40.793Z,12.35
2017-08-28T03:44:08.529Z,11.18
2017-08-28T03:46:36.319Z,14.07
2017-08-28T03:49:04.057Z,12.98
2017-08-28T03:51:31.795Z,14.27
2017-08-28T03:53:59.554Z,13.55
2017-08-28T03:56:27.291Z,14.45
2017-08-28T03:58:55.088Z,14.65
2017-08-28T04:01:22.823Z,17.77
2017-08-28T04:03:50.568Z,13.35
2017-08-28T04:06:18.331Z,16.52
2017-08-28T04:08:46.064Z,19.58
2017-08-28T04:11:13.872Z,20.98
2017-08-28T04:13:41.608Z,18.52
2017-08-28T04:16:09.349Z,19.95
2017-08-28T04:18:37.120Z,19.55
2017-08-28T04:21:04.846Z,22.30
2017-08-28T04:23:32.657Z,27.37
2017-08-28T04:26:00.397Z,25.42
2017-08-28T04:28:28.128Z,24.33
2017-08-28T04:30:55.970Z,21.75
2017-08-28T04:33:23.707Z,24.23
2017-08-28T04:35:51.500Z,23.35
2017-08-28T04:38:19.243Z,21.10
2017-08-28T04:40:46.972Z,20.42
2017-08-28T04:43:14.733Z,20.85
2017-08-28T04:45:42.469Z,21.83
2017-08-28T04:48:10.252Z,20.12
2017-08-28T04:50:37.999Z,23.17
2017-08-28T04:53:05.738Z,18.08
2017-08-28T04:55:33.505Z,27.37
2017-08-28T04:58:01.248Z,15.32
2017-08-28T05:00:29.040Z,15.60
2017-08-28T05:02:56.771Z,18.42
2017-08-28T05:05:24.499Z,16.00
2017-08-28T05:07:52.256Z,12.90
2017-08-28T05:10:19.988Z,12.93
2017-08-28T05:12:47.823Z,11.32
2017-08-28T05:15:15.561Z,12.88
2017-08-28T05:17:43.288Z,9.80
2017-08-28T05:20:11.049Z,11.88
2017-08-28T05:22:38.780Z,11.73
2017-08-28T05:25:06.580Z,15.48
2017-08-28T05:27:34.328Z,17.58
2017-08-28T05:30:02.064Z,26.77
2017-08-28T05:32:29.832Z,31.58
2017-08-28T05:34:57.569Z,17.55
2017-08-28T05:37:25.355Z,14.85
2017-08-28T05:39:53.084Z,15.50
2017-08-28T05:42:20.817Z,16.87
2017-08-28T05:44:48.575Z,21.65
2017-08-28T05:47:16.306Z,21.58
2017-08-28T05:49:44.096Z,20.08
2017-08-28T05:52:11.831Z,20.00
2017-08-28T05:54:39.557Z,11.98
2017-08-28T05:57:07.320Z,15.63
2017-08-28T05:59:35.039Z,9.98
2017-08-28T06:02:02.847Z,10.45
2017-08-28T06:04:30.580Z,11.65
2017-08-28T06:06:58.347Z,8.88
2017-08-28T06:09:26.107Z,9.13
2017-08-28T06:11:53.831Z,12.05
2017-08-28T06:14:21.620Z,12.15
2017-08-28T06:16:49.350Z,10.38
2017-08-28T06:19:17.076Z,7.20
2017-08-28T06:21:44.867Z,12.25
2017-08-28T06:24:12.608Z,6.62
2017-08-28T06:26:40.344Z,8.73
2017-08-28T06:29:08.131Z,9.02
2017-08-28T06:31:35.865Z,11.77
2017-08-28T06:34:03.594Z,10.40
2017-08-28T06:36:31.396Z,10.70
2017-08-28T06:38:59.127Z,11.83
2017-08-28T06:41:26.863Z,12.67
2017-08-28T06:43:54.623Z,10.97
2017-08-28T06:46:22.351Z,17.73
2017-08-28T06:48:50.084Z,7.90
2017-08-28T06:51:17.852Z,6.37
2017-08-28T06:53:45.582Z,7.77
2017-08-28T06:56:13.320Z,8.53
2017-08-28T06:58:41.084Z,10.00
2017-08-28T07:01:08.806Z,6.77
2017-08-28T07:03:36.536Z,6.67
2017-08-28T07:06:04.304Z,6.97
2017-08-28T07:08:32.041Z,5.90
2017-08-28T07:10:59.775Z,6.87
2017-08-28T07:13:27.532Z,22.20
2017-08-28T07:15:55.268Z,13.13
2017-08-28T07:18:23.761Z,7.37
2017-08-28T07:20:51.541Z,5.90
2017-08-28T07:23:19.277Z,10.87
2017-08-28T07:25:47.010Z,5.67
2017-08-28T07:28:14.768Z,8.83
2017-08-28T07:30:42.499Z,5.97
2017-08-28T07:33:10.261Z,4.80
2017-08-28T07:35:38.017Z,4.67
2017-08-28T07:38:05.749Z,5.17
2017-08-28T07:40:33.503Z,4.23
2017-08-28T07:43:01.248Z,5.77
2017-08-28T07:45:29.029Z,5.30
2017-08-28T07:47:56.781Z,3.60
2017-08-28T07:50:24.499Z,5.13
2017-08-28T07:52:52.265Z,4.67
2017-08-28T07:55:20.010Z,3.87
2017-08-28T07:57:47.796Z,6.13
2017-08-28T08:00:15.527Z,4.50
2017-08-28T08:02:43.250Z,4.97
2017-08-28T08:05:11.012Z,4.70
2017-08-28T08:07:38.740Z,3.97
2017-08-28T08:10:06.527Z,4.10
2017-08-28T08:12:34.267Z,5.07
2017-08-28T08:15:02.011Z,4.67
2017-08-28T08:17:29.767Z,5.57
2017-08-28T08:19:57.491Z,5.50
2017-08-28T08:22:25.283Z,4.90
2017-08-28T08:24:53.047Z,4.83
2017-08-28T08:27:20.784Z,3.90
2017-08-28T08:29:49.411Z,4.20
2017-08-28T08:32:17.151Z,4.53
2017-08-28T08:34:45.073Z,2.13
2017-08-28T08:37:12.851Z,2.00
2017-08-28T08:39:40.594Z,3.10
2017-08-28T08:42:08.659Z,3.10
2017-08-28T08:44:36.404Z,6.85
2017-08-28T08:47:04.427Z,5.20
2017-08-28T08:49:32.163Z,4.25
2017-08-28T08:51:59.894Z,2.33
2017-08-28T08:54:27.649Z,1.90
2017-08-28T08:56:55.375Z,2.45
2017-08-28T08:59:23.161Z,1.60
2017-08-28T09:01:50.883Z,1.60
2017-08-28T09:04:18.603Z,1.10
2017-08-28T09:06:46.359Z,2.03
2017-08-28T09:09:14.087Z,2.80
2017-08-28T09:11:41.878Z,2.92
2017-08-28T09:14:11.288Z,2.03
2017-08-28T09:16:39.027Z,1.90
2017-08-28T09:19:06.847Z,3.55
2017-08-28T09:21:34.572Z,2.25
2017-08-28T09:24:02.368Z,2.78
2017-08-28T09:26:30.100Z,2.12
2017-08-28T09:28:57.819Z,3.37
2017-08-28T09:31:27.555Z,1.70
2017-08-28T09:33:55.356Z,3.17
2017-08-28T09:36:23.143Z,3.08
2017-08-28T09:38:50.907Z,2.40
2017-08-28T09:41:18.637Z,1.90
2017-08-28T09:43:46.390Z,2.78
2017-08-28T09:46:14.117Z,1.65
2017-08-28T09:48:41.956Z,3.08
2017-08-28T09:51:10.471Z,2.37
2017-08-28T09:53:38.290Z,1.87
2017-08-28T09:56:06.044Z,1.70
2017-08-28T09:58:33.833Z,3.70
2017-08-28T10:01:01.620Z,3.45
2017-08-28T10:03:29.356Z,5.25
2017-08-28T10:05:57.107Z,2.12
2017-08-28T10:08:24.872Z,2.90
2017-08-28T10:10:52.596Z,2.78
2017-08-28T10:13:20.513Z,2.08
2017-08-28T10:15:48.361Z,1.73
2017-08-28T10:18:17.003Z,2.00
2017-08-28T10:20:44.759Z,1.92
2017-08-28T10:23:12.504Z,6.35
2017-08-28T10:25:40.288Z,2.00
2017-08-28T10:28:08.009Z,2.20
2017-08-28T10:30:35.736Z,1.75
2017-08-28T10:33:03.497Z,2.70
2017-08-28T10:35:31.228Z,1.67
2017-08-28T10:37:59.068Z,2.35
2017-08-28T10:40:26.827Z,2.30
2017-08-28T10:42:54.559Z,1.65
2017-08-28T10:45:22.316Z,3.40
2017-08-28T10:47:50.043Z,2.20
2017-08-28T10:50:17.835Z,2.25
2017-08-28T10:52:45.560Z,3.15
2017-08-28T10:55:13.296Z,2.10
2017-08-28T10:57:41.048Z,2.55
2017-08-28T11:00:08.788Z,1.50
2017-08-28T11:02:36.576Z,7.55
2017-08-28T11:05:04.304Z,2.25
2017-08-28T11:07:32.027Z,2.78
2017-08-28T11:09:59.783Z,1.52
2017-08-28T11:12:27.508Z,3.80
2017-08-28T11:14:55.291Z,1.62
2017-08-28T11:17:23.070Z,2.30
2017-08-28T11:19:50.805Z,3.37
2017-08-28T11:22:18.594Z,3.30
2017-08-28T11:24:46.320Z,4.53
2017-08-28T11:27:14.094Z,2.70
2017-08-28T11:29:41.816Z,2.03
2017-08-28T11:32:09.544Z,4.75
2017-08-28T11:34:37.310Z,2.58
2017-08-28T11:37:05.036Z,3.08
2017-08-28T11:39:32.816Z,2.90
2017-08-28T11:42:00.536Z,2.87
2017-08-28T11:44:28.260Z,2.40
2017-08-28T11:46:56.015Z,2.15
2017-08-28T11:49:23.739Z,1.55
2017-08-28T11:51:51.522Z,3.28
2017-08-28T11:54:19.297Z,5.00
2017-08-28T11:56:47.019Z,2.65
2017-08-28T11:59:14.779Z,4.35
2017-08-28T12:01:42.497Z,4.35
2017-08-28T12:04:10.282Z,2.25
2017-08-28T12:06:38.007Z,1.80
2017-08-28T12:09:05.732Z,1.70
2017-08-28T12:11:33.489Z,1.52
2017-08-28T12:14:01.214Z,1.90
2017-08-28T12:16:28.995Z,4.28
2017-08-28T12:18:56.714Z,2.60
2017-08-28T12:21:24.441Z,1.80
2017-08-28T12:23:52.230Z,2.40
2017-08-28T12:26:19.952Z,2.28
2017-08-28T12:28:47.728Z,3.20
2017-08-28T12:31:15.460Z,4.50
2017-08-28T12:33:43.194Z,1.70
2017-08-28T12:36:10.953Z,2.47
2017-08-28T12:38:38.689Z,2.45
2017-08-28T12:41:06.488Z,2.17
2017-08-28T12:43:34.216Z,1.85
2017-08-28T12:46:01.939Z,1.40
2017-08-28T12:48:29.688Z,3.05
2017-08-28T12:50:57.411Z,1.98
2017-08-28T12:53:25.199Z,2.33
2017-08-28T12:55:52.926Z,2.05
2017-08-28T12:58:20.650Z,2.10
2017-08-28T13:00:48.405Z,3.17
2017-08-28T13:03:16.139Z,1.50
2017-08-28T13:05:43.920Z,1.35
2017-08-28T13:08:11.648Z,2.45
2017-08-28T13:10:39.372Z,2.37
2017-08-28T13:13:07.119Z,1.60
2017-08-28T13:15:34.846Z,2.25
2017-08-28T13:18:02.628Z,2.45
2017-08-28T13:20:30.356Z,3.55
2017-08-28T13:22:58.080Z,2.92
2017-08-28T13:25:25.844Z,1.52
2017-08-28T13:27:53.571Z,3.60
2017-08-28T13:30:21.352Z,1.37
2017-08-28T13:32:49.072Z,1.95
2017-08-28T13:35:16.796Z,2.75
2017-08-28T13:37:44.560Z,2.10
2017-08-28T13:40:12.281Z,3.15
2017-08-28T13:42:40.068Z,2.17
2017-08-28T13:45:07.791Z,2.78
2017-08-28T13:47:35.548Z,2.67
2017-08-28T13:50:03.310Z,4.25
2017-08-28T13:52:31.039Z,2.05
2017-08-28T13:54:58.820Z,1.70
2017-08-28T13:57:26.569Z,2.80
2017-08-28T13:59:54.293Z,3.60
2017-08-28T14:02:22.051Z,3.05
2017-08-28T14:04:49.779Z,3.25
2017-08-28T14:07:17.563Z,3.90
2017-08-28T14:09:45.287Z,2.70
2017-08-28T14:12:13.026Z,2.10
2017-08-28T14:14:40.786Z,2.67
2017-08-28T14:17:08.509Z,2.20
2017-08-28T14:19:36.340Z,2.80
2017-08-28T14:22:04.071Z,2.37
2017-08-28T14:24:31.794Z,2.00
2017-08-28T14:26:59.569Z,2.47
2017-08-28T14:29:27.299Z,2.62
2017-08-28T14:31:55.084Z,1.60
2017-08-28T14:34:22.811Z,1.92
2017-08-28T14:36:50.538Z,2.45
2017-08-28T14:39:18.295Z,2.28
2017-08-28T14:41:46.021Z,1.95
2017-08-28T14:44:13.811Z,4.15
2017-08-28T14:46:41.535Z,2.92
2017-08-28T14:49:09.257Z,3.08
2017-08-28T14:51:37.018Z,2.40
2017-08-28T14:54:04.749Z,3.17
2017-08-28T14:56:32.531Z,4.37
2017-08-28T14:59:05.850Z,2.80
2017-08-28T15:01:34.300Z,3.90
2017-08-28T15:04:02.024Z,3.08
2017-08-28T15:06:29.763Z,3.70
2017-08-28T15:08:57.531Z,2.17
2017-08-28T15:11:25.280Z,2.95
2017-08-28T15:13:53.086Z,3.70
2017-08-28T15:16:20.811Z,6.43
2017-08-28T15:18:48.552Z,5.47
2017-08-28T15:21:16.316Z,4.10
2017-08-28T15:23:44.095Z,4.40
2017-08-28T15:26:11.911Z,3.12
2017-08-28T15:28:39.676Z,4.25
2017-08-28T15:31:07.450Z,2.33
2017-08-28T15:33:35.228Z,2.58
2017-08-28T15:36:02.999Z,2.95
2017-08-28T15:38:30.783Z,2.78
2017-08-28T15:40:58.552Z,3.10
2017-08-28T15:43:26.325Z,4.18
2017-08-28T15:45:54.118Z,3.20
2017-08-28T15:48:23.008Z,4.95
2017-08-28T15:50:50.786Z,2.80
2017-08-28T15:53:18.508Z,3.95
2017-08-28T15:55:46.904Z,2.55
2017-08-28T15:58:14.664Z,2.72
2017-08-28T16:00:43.131Z,7.50
2017-08-28T16:03:10.987Z,7.10
2017-08-28T16:05:38.711Z,5.32
2017-08-28T16:08:06.427Z,2.78
2017-08-28T16:10:34.188Z,5.55
2017-08-28T16:13:01.911Z,2.42
2017-08-28T16:15:29.704Z,2.87
2017-08-28T16:17:57.440Z,4.60
2017-08-28T16:20:25.217Z,3.90
2017-08-28T16:22:52.976Z,2.83
2017-08-28T16:25:20.704Z,4.45
2017-08-28T16:27:48.488Z,2.92
2017-08-28T16:30:16.211Z,4.50
2017-08-28T16:32:43.942Z,3.70
2017-08-28T16:35:11.701Z,4.70
2017-08-28T16:37:39.427Z,5.30
2017-08-28T16:40:07.207Z,2.83
2017-08-28T16:42:34.933Z,3.90
2017-08-28T16:45:04.437Z,3.15
2017-08-28T16:47:32.575Z,5.15
2017-08-28T16:50:00.304Z,3.17
2017-08-28T16:52:28.086Z,3.65
2017-08-28T16:54:55.821Z,4.40
2017-08-28T16:57:23.555Z,5.82
2017-08-28T16:59:52.598Z,3.87
2017-08-28T17:02:20.325Z,6.10
2017-08-28T17:04:48.109Z,3.20
2017-08-28T17:07:15.836Z,2.75
2017-08-28T17:09:45.532Z,4.50
2017-08-28T17:12:13.290Z,3.05
2017-08-28T17:14:41.027Z,5.55
2017-08-28T17:17:08.813Z,3.50
2017-08-28T17:19:36.538Z,3.10
2017-08-28T17:22:04.272Z,3.33
2017-08-28T17:24:32.028Z,4.15
2017-08-28T17:26:59.761Z,2.58
2017-08-28T17:29:27.544Z,2.40
2017-08-28T17:31:55.273Z,3.33
2017-08-28T17:34:23.020Z,5.37
2017-08-28T17:36:50.772Z,2.72
2017-08-28T17:39:18.497Z,3.03
2017-08-28T17:41:46.283Z,4.62
2017-08-28T17:44:14.013Z,3.92
2017-08-28T17:46:41.736Z,5.82
2017-08-28T17:49:09.503Z,10.38
2017-08-28T17:51:37.231Z,5.43
2017-08-28T17:54:05.026Z,5.80
2017-08-28T17:56:32.760Z,3.35
2017-08-28T17:59:00.496Z,3.97
2017-08-28T18:01:28.254Z,4.40
2017-08-28T18:03:55.987Z,5.18
2017-08-28T18:06:23.767Z,4.37
2017-08-28T18:08:51.491Z,3.65
2017-08-28T18:11:21.279Z,5.28
2017-08-28T18:13:49.032Z,4.40
2017-08-28T18:16:16.759Z,5.57
2017-08-28T18:18:44.859Z,4.40
2017-08-28T18:21:12.595Z,4.97
2017-08-28T18:23:40.312Z,3.20
2017-08-28T18:26:08.076Z,5.37
2017-08-28T18:28:35.897Z,6.37
2017-08-28T18:31:05.736Z,3.97
2017-08-28T18:33:33.676Z,4.68
2017-08-28T18:36:01.485Z,5.10
2017-08-28T18:38:29.327Z,7.20
2017-08-28T18:40:57.068Z,6.50
2017-08-28T18:43:24.858Z,4.53
2017-08-28T18:45:52.619Z,4.55
2017-08-28T18:48:20.440Z,4.43
2017-08-28T18:50:48.198Z,5.72
2017-08-28T18:53:15.938Z,4.72
2017-08-28T18:55:43.738Z,4.85
2017-08-28T18:58:11.476Z,6.57
2017-08-28T19:00:39.215Z,6.65
2017-08-28T19:03:06.980Z,5.57
2017-08-28T19:05:34.708Z,6.45
2017-08-28T19:08:02.532Z,5.00
2017-08-28T19:10:30.362Z,7.20
2017-08-28T19:12:58.136Z,6.43
2017-08-28T19:15:25.907Z,9.95
2017-08-28T19:17:53.751Z,8.75
2017-08-28T19:20:21.933Z,8.63
2017-08-28T19:22:49.824Z,8.57
2017-08-28T19:25:17.574Z,6.75
2017-08-28T19:27:45.356Z,5.62
2017-08-28T19:30:13.119Z,10.05
2017-08-28T19:32:40.899Z,5.95
2017-08-28T19:35:10.568Z,5.82
2017-08-28T19:37:38.328Z,6.20
2017-08-28T19:40:06.105Z,8.43
2017-08-28T19:42:33.867Z,6.55
2017-08-28T19:45:01.661Z,10.63
2017-08-28T19:47:29.384Z,7.18
2017-08-28T19:49:57.115Z,4.97
2017-08-28T19:52:24.884Z,6.57
2017-08-28T19:54:52.609Z,9.30
2017-08-28T19:57:20.416Z,10.45
2017-08-28T19:59:48.144Z,9.02
2017-08-28T20:02:15.911Z,9.40
2017-08-28T20:04:43.712Z,11.60
2017-08-28T20:07:11.452Z,9.35
2017-08-28T20:09:39.242Z,8.38
2017-08-28T20:12:06.986Z,10.00
2017-08-28T20:14:34.730Z,10.27
2017-08-28T20:17:02.500Z,10.88
2017-08-28T20:19:30.241Z,8.13
2017-08-28T20:21:58.890Z,11.85
2017-08-28T20:24:26.633Z,6.97
2017-08-28T20:26:54.385Z,11.90
2017-08-28T20:29:22.165Z,8.00
2017-08-28T20:31:49.892Z,7.35
2017-08-28T20:34:17.676Z,8.68
2017-08-28T20:36:45.400Z,6.03
2017-08-28T20:39:13.123Z,6.85
2017-08-28T20:41:40.876Z,6.68
2017-08-28T20:44:08.603Z,6.80
2017-08-28T20:46:36.387Z,7.30
2017-08-28T20:49:04.120Z,6.60
2017-08-28T20:51:31.855Z,9.77
2017-08-28T20:53:59.610Z,7.40
2017-08-28T20:56:27.334Z,8.13
2017-08-28T20:58:55.211Z,6.95
2017-08-28T21:01:22.936Z,8.48
2017-08-28T21:03:50.733Z,11.23
2017-08-28T21:06:18.714Z,12.93
2017-08-28T21:08:46.456Z,9.13
2017-08-28T21:11:14.232Z,8.50
2017-08-28T21:13:41.967Z,9.10
2017-08-28T21:16:09.762Z,8.65
2017-08-28T21:18:37.624Z,9.07
2017-08-28T21:21:05.359Z,8.32
2017-08-28T21:23:33.164Z,8.77
2017-08-28T21:26:00.905Z,9.05
2017-08-28T21:28:28.655Z,9.50
2017-08-28T21:30:56.408Z,9.43
2017-08-28T21:33:24.142Z,11.25
2017-08-28T21:35:51.936Z,12.95
2017-08-28T21:38:19.664Z,14.48
2017-08-28T21:40:47.513Z,10.75
2017-08-28T21:43:15.409Z,8.60
2017-08-28T21:45:43.143Z,10.55
2017-08-28T21:48:10.933Z,10.57
2017-08-28T21:50:38.664Z,10.70
2017-08-28T21:53:06.509Z,10.18
2017-08-28T21:55:34.349Z,13.98
2017-08-28T21:58:02.108Z,10.82
2017-08-28T22:00:29.898Z,11.00
2017-08-28T22:02:57.623Z,18.00
2017-08-28T22:05:25.362Z,10.02
2017-08-28T22:07:53.186Z,10.40
2017-08-28T22:10:20.937Z,13.82
2017-08-28T22:12:48.720Z,12.25
2017-08-28T22:15:16.448Z,10.50
2017-08-28T22:17:44.179Z,12.02
2017-08-28T22:20:11.948Z,12.55
2017-08-28T22:22:39.685Z,14.80
2017-08-28T22:25:07.515Z,12.48
2017-08-28T22:27:35.242Z,11.10
2017-08-28T22:30:02.979Z,13.55
2017-08-28T22:32:30.745Z,12.20
2017-08-28T22:34:58.479Z,12.55
2017-08-28T22:37:26.263Z,12.85
2017-08-28T22:39:53.993Z,10.75
2017-08-28T22:42:21.728Z,12.98
2017-08-28T22:44:49.493Z,14.43
2017-08-28T22:47:17.216Z,9.70
2017-08-28T22:49:45.015Z,11.93
2017-08-28T22:52:12.736Z,9.18
2017-08-28T22:54:40.460Z,9.23
2017-08-28T22:57:08.227Z,11.02
2017-08-28T22:59:35.954Z,10.18
2017-08-28T23:02:03.737Z,11.12
2017-08-28T23:04:31.464Z,11.30
2017-08-28T23:06:59.190Z,10.35
2017-08-28T23:09:26.952Z,11.23
2017-08-28T23:11:54.691Z,12.20
2017-08-28T23:14:22.493Z,13.88
2017-08-28T23:16:50.226Z,12.82
2017-08-28T23:19:17.947Z,10.25
2017-08-28T23:21:45.706Z,10.90
2017-08-28T23:24:13.436Z,10.05
2017-08-28T23:26:41.219Z,10.70
2017-08-28T23:29:08.949Z,12.00
2017-08-28T23:31:36.670Z,10.18
2017-08-28T23:34:04.432Z,12.77
2017-08-28T23:36:32.156Z,12.85
2017-08-28T23:38:59.936Z,9.40
2017-08-28T23:41:27.655Z,14.07
2017-08-28T23:43:55.388Z,12.45
2017-08-28T23:46:23.148Z,11.48
2017-08-28T23:48:50.871Z,11.35
2017-08-28T23:51:18.681Z,13.07
2017-08-28T23:53:46.406Z,14.48
2017-08-28T23:56:14.171Z,11.95
2017-08-28T23:58:41.933Z,11.82
